sensor_id;sensor_type;location;lat;lon;timestamp;pressure;altitude;pressure_sealevel;temperature;humidity
51245;BME280;37840;47.562;18.738;2023-02-10T00:01:15;101851.19;;;-4.74;68.05
51245;BME280;37840;47.562;18.738;2023-02-10T00:03:42;101853.41;;;-4.87;68.43
51245;BME280;37840;47.562;18.738;2023-02-10T00:06:09;101852.59;;;-4.86;68.96
51245;BME280;37840;47.562;18.738;2023-02-10T00:08:35;101848.41;;;-4.80;69.15
51245;BME280;37840;47.562;18.738;2023-02-10T00:11:04;101852.84;;;-4.76;68.98
51245;BME280;37840;47.562;18.738;2023-02-10T00:13:30;101854.97;;;-4.59;68.41
51245;BME280;37840;47.562;18.738;2023-02-10T00:15:58;101852.84;;;-4.41;67.94
51245;BME280;37840;47.562;18.738;2023-02-10T00:18:24;101850.34;;;-4.38;67.54
51245;BME280;37840;47.562;18.738;2023-02-10T00:20:51;101855.62;;;-4.32;67.15
51245;BME280;37840;47.562;18.738;2023-02-10T00:23:17;101848.72;;;-4.33;66.98
51245;BME280;37840;47.562;18.738;2023-02-10T00:25:43;101848.59;;;-4.37;66.56
51245;BME280;37840;47.562;18.738;2023-02-10T00:28:09;101851.09;;;-4.40;66.59
51245;BME280;37840;47.562;18.738;2023-02-10T00:30:36;101849.31;;;-4.43;66.45
51245;BME280;37840;47.562;18.738;2023-02-10T00:33:02;101865.56;;;-4.52;67.01
51245;BME280;37840;47.562;18.738;2023-02-10T00:35:29;101855.22;;;-4.48;66.80
51245;BME280;37840;47.562;18.738;2023-02-10T00:37:55;101857.84;;;-4.48;64.80
51245;BME280;37840;47.562;18.738;2023-02-10T00:40:20;101857.41;;;-4.65;65.31
51245;BME280;37840;47.562;18.738;2023-02-10T00:42:46;101865.19;;;-4.67;65.91
51245;BME280;37840;47.562;18.738;2023-02-10T00:45:12;101863.63;;;-4.60;66.13
51245;BME280;37840;47.562;18.738;2023-02-10T00:47:38;101862.59;;;-4.67;66.98
51245;BME280;37840;47.562;18.738;2023-02-10T00:50:05;101866.00;;;-4.68;67.23
51245;BME280;37840;47.562;18.738;2023-02-10T00:52:32;101860.22;;;-4.91;67.32
51245;BME280;37840;47.562;18.738;2023-02-10T00:54:57;101851.41;;;-4.98;67.90
51245;BME280;37840;47.562;18.738;2023-02-10T00:57:23;101845.66;;;-4.86;67.89
51245;BME280;37840;47.562;18.738;2023-02-10T00:59:49;101856.38;;;-4.74;67.67
51245;BME280;37840;47.562;18.738;2023-02-10T01:02:15;101847.81;;;-4.69;67.72
51245;BME280;37840;47.562;18.738;2023-02-10T01:04:41;101853.00;;;-4.69;67.68
51245;BME280;37840;47.562;18.738;2023-02-10T01:07:07;101847.06;;;-4.64;67.45
51245;BME280;37840;47.562;18.738;2023-02-10T01:09:33;101844.53;;;-4.62;67.35
51245;BME280;37840;47.562;18.738;2023-02-10T01:11:59;101848.91;;;-4.60;67.29
51245;BME280;37840;47.562;18.738;2023-02-10T01:14:25;101848.84;;;-4.63;66.72
51245;BME280;37840;47.562;18.738;2023-02-10T01:16:52;101851.19;;;-4.72;67.07
51245;BME280;37840;47.562;18.738;2023-02-10T01:19:18;101845.34;;;-4.65;66.81
51245;BME280;37840;47.562;18.738;2023-02-10T01:21:44;101836.53;;;-4.72;67.17
51245;BME280;37840;47.562;18.738;2023-02-10T01:24:10;101840.09;;;-4.66;66.71
51245;BME280;37840;47.562;18.738;2023-02-10T01:26:36;101840.09;;;-4.66;66.41
51245;BME280;37840;47.562;18.738;2023-02-10T01:29:02;101840.63;;;-4.80;66.89
51245;BME280;37840;47.562;18.738;2023-02-10T01:31:28;101838.03;;;-4.80;67.21
51245;BME280;37840;47.562;18.738;2023-02-10T01:33:55;101837.37;;;-4.71;67.01
51245;BME280;37840;47.562;18.738;2023-02-10T01:36:23;101839.81;;;-4.77;66.45
51245;BME280;37840;47.562;18.738;2023-02-10T01:38:49;101835.56;;;-4.75;66.40
51245;BME280;37840;47.562;18.738;2023-02-10T01:41:19;101834.38;;;-4.88;66.95
51245;BME280;37840;47.562;18.738;2023-02-10T01:44:03;101831.06;;;-4.81;66.85
51245;BME280;37840;47.562;18.738;2023-02-10T01:46:31;101827.56;;;-4.84;66.65
51245;BME280;37840;47.562;18.738;2023-02-10T01:49:01;101828.41;;;-4.84;66.75
51245;BME280;37840;47.562;18.738;2023-02-10T01:51:34;101824.22;;;-4.79;66.67
51245;BME280;37840;47.562;18.738;2023-02-10T01:54:03;101821.44;;;-4.85;66.47
51245;BME280;37840;47.562;18.738;2023-02-10T01:56:30;101819.87;;;-4.78;66.35
51245;BME280;37840;47.562;18.738;2023-02-10T01:58:56;101822.41;;;-4.81;66.29
51245;BME280;37840;47.562;18.738;2023-02-10T02:01:22;101819.06;;;-4.77;66.29
51245;BME280;37840;47.562;18.738;2023-02-10T02:03:48;101822.63;;;-4.74;66.58
51245;BME280;37840;47.562;18.738;2023-02-10T02:06:14;101827.50;;;-4.86;67.19
51245;BME280;37840;47.562;18.738;2023-02-10T02:08:40;101830.81;;;-4.92;67.49
51245;BME280;37840;47.562;18.738;2023-02-10T02:11:20;101822.25;;;-4.87;66.91
51245;BME280;37840;47.562;18.738;2023-02-10T02:30:02;101819.75;;;-5.18;64.08
51245;BME280;37840;47.562;18.738;2023-02-10T02:32:43;101811.97;;;-5.18;64.52
51245;BME280;37840;47.562;18.738;2023-02-10T02:35:30;101816.37;;;-5.47;66.46
51245;BME280;37840;47.562;18.738;2023-02-10T02:37:58;101825.16;;;-5.42;66.24
51245;BME280;37840;47.562;18.738;2023-02-10T02:40:24;101818.03;;;-5.49;66.52
51245;BME280;37840;47.562;18.738;2023-02-10T02:42:50;101817.97;;;-5.50;66.17
51245;BME280;37840;47.562;18.738;2023-02-10T02:45:23;101806.66;;;-5.54;67.52
51245;BME280;37840;47.562;18.738;2023-02-10T02:51:24;101817.97;;;-5.50;67.74
51245;BME280;37840;47.562;18.738;2023-02-10T02:56:50;101827.19;;;-5.62;68.88
51245;BME280;37840;47.562;18.738;2023-02-10T02:59:24;101825.44;;;-5.63;69.07
51245;BME280;37840;47.562;18.738;2023-02-10T03:02:12;101824.13;;;-5.47;68.85
51245;BME280;37840;47.562;18.738;2023-02-10T03:04:40;101819.50;;;-5.59;68.82
51245;BME280;37840;47.562;18.738;2023-02-10T03:07:07;101810.16;;;-5.82;69.83
51245;BME280;37840;47.562;18.738;2023-02-10T03:09:35;101810.09;;;-5.85;70.17
51245;BME280;37840;47.562;18.738;2023-02-10T03:12:01;101809.59;;;-5.74;70.01
51245;BME280;37840;47.562;18.738;2023-02-10T03:14:27;101810.75;;;-5.62;69.65
51245;BME280;37840;47.562;18.738;2023-02-10T03:16:53;101816.47;;;-5.44;68.99
51245;BME280;37840;47.562;18.738;2023-02-10T03:19:19;101815.78;;;-5.37;68.37
51245;BME280;37840;47.562;18.738;2023-02-10T03:21:45;101805.69;;;-5.58;68.23
51245;BME280;37840;47.562;18.738;2023-02-10T03:24:13;101811.69;;;-5.60;68.87
51245;BME280;37840;47.562;18.738;2023-02-10T03:26:39;101810.97;;;-5.55;69.15
51245;BME280;37840;47.562;18.738;2023-02-10T03:29:06;101811.44;;;-5.68;68.89
51245;BME280;37840;47.562;18.738;2023-02-10T03:31:32;101810.44;;;-5.73;69.38
51245;BME280;37840;47.562;18.738;2023-02-10T03:33:58;101807.56;;;-5.82;69.76
51245;BME280;37840;47.562;18.738;2023-02-10T03:36:24;101816.19;;;-5.83;70.23
51245;BME280;37840;47.562;18.738;2023-02-10T03:38:50;101801.81;;;-5.72;68.86
51245;BME280;37840;47.562;18.738;2023-02-10T03:41:16;101801.00;;;-5.71;68.08
51245;BME280;37840;47.562;18.738;2023-02-10T03:43:42;101798.25;;;-6.07;66.82
51245;BME280;37840;47.562;18.738;2023-02-10T03:46:09;101803.19;;;-6.44;68.13
51245;BME280;37840;47.562;18.738;2023-02-10T03:48:36;101794.97;;;-6.58;69.35
51245;BME280;37840;47.562;18.738;2023-02-10T03:51:04;101789.94;;;-6.53;69.96
51245;BME280;37840;47.562;18.738;2023-02-10T03:53:31;101796.53;;;-6.36;69.17
51245;BME280;37840;47.562;18.738;2023-02-10T03:55:57;101801.03;;;-6.30;68.56
51245;BME280;37840;47.562;18.738;2023-02-10T03:58:23;101800.09;;;-6.32;68.46
51245;BME280;37840;47.562;18.738;2023-02-10T04:00:50;101799.37;;;-6.28;66.80
51245;BME280;37840;47.562;18.738;2023-02-10T04:03:16;101795.72;;;-6.34;65.71
51245;BME280;37840;47.562;18.738;2023-02-10T04:05:42;101792.69;;;-6.48;66.57
51245;BME280;37840;47.562;18.738;2023-02-10T04:08:08;101795.06;;;-6.54;67.23
51245;BME280;37840;47.562;18.738;2023-02-10T04:10:34;101795.50;;;-6.41;67.15
51245;BME280;37840;47.562;18.738;2023-02-10T04:13:01;101798.19;;;-6.38;67.13
51245;BME280;37840;47.562;18.738;2023-02-10T04:15:26;101793.00;;;-6.38;66.91
51245;BME280;37840;47.562;18.738;2023-02-10T04:17:52;101803.03;;;-6.48;67.00
51245;BME280;37840;47.562;18.738;2023-02-10T04:20:18;101803.63;;;-6.57;67.83
51245;BME280;37840;47.562;18.738;2023-02-10T04:22:44;101814.22;;;-6.49;67.97
51245;BME280;37840;47.562;18.738;2023-02-10T04:25:10;101809.87;;;-6.50;68.59
51245;BME280;37840;47.562;18.738;2023-02-10T04:27:36;101813.00;;;-6.61;68.93
51245;BME280;37840;47.562;18.738;2023-02-10T04:30:02;101802.66;;;-6.61;69.31
51245;BME280;37840;47.562;18.738;2023-02-10T04:32:28;101800.16;;;-6.58;69.80
51245;BME280;37840;47.562;18.738;2023-02-10T04:34:54;101814.03;;;-6.56;69.77
51245;BME280;37840;47.562;18.738;2023-02-10T04:37:20;101817.34;;;-6.60;70.19
51245;BME280;37840;47.562;18.738;2023-02-10T04:39:46;101811.50;;;-6.54;70.74
51245;BME280;37840;47.562;18.738;2023-02-10T04:42:12;101822.97;;;-6.73;70.96
51245;BME280;37840;47.562;18.738;2023-02-10T04:44:38;101829.69;;;-7.04;73.05
51245;BME280;37840;47.562;18.738;2023-02-10T04:47:04;101815.72;;;-7.09;73.64
51245;BME280;37840;47.562;18.738;2023-02-10T04:49:30;101818.47;;;-7.04;73.72
51245;BME280;37840;47.562;18.738;2023-02-10T04:51:56;101818.22;;;-6.86;73.08
51245;BME280;37840;47.562;18.738;2023-02-10T04:54:21;101819.53;;;-6.72;72.90
51245;BME280;37840;47.562;18.738;2023-02-10T04:56:47;101825.31;;;-6.53;72.16
51245;BME280;37840;47.562;18.738;2023-02-10T04:59:13;101821.25;;;-6.45;69.60
51245;BME280;37840;47.562;18.738;2023-02-10T05:01:39;101828.69;;;-6.56;68.18
51245;BME280;37840;47.562;18.738;2023-02-10T05:04:05;101826.03;;;-6.58;68.85
51245;BME280;37840;47.562;18.738;2023-02-10T05:06:31;101832.94;;;-6.58;68.56
51245;BME280;37840;47.562;18.738;2023-02-10T05:08:57;101830.47;;;-6.53;67.92
51245;BME280;37840;47.562;18.738;2023-02-10T05:11:23;101833.84;;;-6.56;68.25
51245;BME280;37840;47.562;18.738;2023-02-10T05:13:49;101830.41;;;-6.57;68.91
51245;BME280;37840;47.562;18.738;2023-02-10T05:16:15;101833.06;;;-6.53;69.64
51245;BME280;37840;47.562;18.738;2023-02-10T05:18:42;101828.75;;;-6.53;69.69
51245;BME280;37840;47.562;18.738;2023-02-10T05:21:09;101833.22;;;-6.49;70.02
51245;BME280;37840;47.562;18.738;2023-02-10T05:23:38;101835.00;;;-6.48;70.83
51245;BME280;37840;47.562;18.738;2023-02-10T05:26:05;101834.88;;;-6.51;71.34
51245;BME280;37840;47.562;18.738;2023-02-10T05:28:31;101833.34;;;-6.46;71.36
51245;BME280;37840;47.562;18.738;2023-02-10T05:30:57;101836.09;;;-6.40;70.81
51245;BME280;37840;47.562;18.738;2023-02-10T05:33:23;101830.97;;;-6.38;70.96
51245;BME280;37840;47.562;18.738;2023-02-10T05:35:49;101824.28;;;-6.31;70.95
51245;BME280;37840;47.562;18.738;2023-02-10T05:38:15;101830.50;;;-6.26;70.61
51245;BME280;37840;47.562;18.738;2023-02-10T05:40:40;101839.06;;;-6.27;70.28
51245;BME280;37840;47.562;18.738;2023-02-10T05:43:06;101837.53;;;-6.22;67.97
51245;BME280;37840;47.562;18.738;2023-02-10T05:45:35;101836.59;;;-6.24;67.92
51245;BME280;37840;47.562;18.738;2023-02-10T05:48:01;101829.59;;;-6.27;67.10
51245;BME280;37840;47.562;18.738;2023-02-10T05:50:27;101835.34;;;-6.36;66.92
51245;BME280;37840;47.562;18.738;2023-02-10T05:52:55;101840.97;;;-6.49;67.31
51245;BME280;37840;47.562;18.738;2023-02-10T05:55:21;101836.25;;;-6.62;66.96
51245;BME280;37840;47.562;18.738;2023-02-10T05:57:47;101838.56;;;-6.70;69.13
51245;BME280;37840;47.562;18.738;2023-02-10T06:00:13;101839.91;;;-6.56;68.79
51245;BME280;37840;47.562;18.738;2023-02-10T06:02:40;101841.09;;;-6.46;68.14
51245;BME280;37840;47.562;18.738;2023-02-10T06:05:06;101845.34;;;-6.48;67.65
51245;BME280;37840;47.562;18.738;2023-02-10T06:07:32;101851.03;;;-6.58;66.97
51245;BME280;37840;47.562;18.738;2023-02-10T06:09:57;101863.13;;;-6.57;67.09
51245;BME280;37840;47.562;18.738;2023-02-10T06:12:23;101872.91;;;-6.48;67.06
51245;BME280;37840;47.562;18.738;2023-02-10T06:14:49;101873.91;;;-6.45;66.52
51245;BME280;37840;47.562;18.738;2023-02-10T06:17:15;101868.19;;;-6.34;66.18
51245;BME280;37840;47.562;18.738;2023-02-10T06:19:41;101872.62;;;-6.30;66.10
51245;BME280;37840;47.562;18.738;2023-02-10T06:22:08;101871.19;;;-6.22;65.33
51245;BME280;37840;47.562;18.738;2023-02-10T06:24:35;101884.25;;;-5.89;64.32
51245;BME280;37840;47.562;18.738;2023-02-10T06:27:01;101881.09;;;-5.50;62.87
51245;BME280;37840;47.562;18.738;2023-02-10T06:29:27;101886.31;;;-4.86;60.86
51245;BME280;37840;47.562;18.738;2023-02-10T06:31:53;101866.59;;;-4.45;58.98
51245;BME280;37840;47.562;18.738;2023-02-10T06:34:19;101869.66;;;-3.88;57.42
51245;BME280;37840;47.562;18.738;2023-02-10T06:36:45;101869.69;;;-3.44;56.33
51245;BME280;37840;47.562;18.738;2023-02-10T06:39:11;101866.72;;;-2.73;55.30
51245;BME280;37840;47.562;18.738;2023-02-10T06:41:37;101862.69;;;-1.99;52.95
51245;BME280;37840;47.562;18.738;2023-02-10T06:44:03;101861.16;;;-1.16;50.74
51245;BME280;37840;47.562;18.738;2023-02-10T06:46:29;101868.94;;;-0.29;48.70
51245;BME280;37840;47.562;18.738;2023-02-10T06:48:55;101884.25;;;0.47;47.10
51245;BME280;37840;47.562;18.738;2023-02-10T06:51:21;101885.38;;;1.29;44.98
51245;BME280;37840;47.562;18.738;2023-02-10T06:53:48;101880.16;;;1.94;44.12
51245;BME280;37840;47.562;18.738;2023-02-10T06:56:13;101886.12;;;2.60;42.42
51245;BME280;37840;47.562;18.738;2023-02-10T06:58:39;101884.97;;;3.17;41.37
51245;BME280;37840;47.562;18.738;2023-02-10T07:01:13;101876.78;;;3.60;40.60
51245;BME280;37840;47.562;18.738;2023-02-10T07:03:42;101888.59;;;4.12;39.49
51245;BME280;37840;47.562;18.738;2023-02-10T07:06:08;101884.41;;;4.73;38.14
51245;BME280;37840;47.562;18.738;2023-02-10T07:08:34;101884.03;;;5.00;36.64
51245;BME280;37840;47.562;18.738;2023-02-10T07:11:00;101871.03;;;5.48;36.25
51245;BME280;37840;47.562;18.738;2023-02-10T07:13:26;101863.06;;;6.06;35.48
51245;BME280;37840;47.562;18.738;2023-02-10T07:15:52;101864.88;;;6.47;35.08
51245;BME280;37840;47.562;18.738;2023-02-10T07:18:18;101861.66;;;6.75;35.04
51245;BME280;37840;47.562;18.738;2023-02-10T07:20:45;101857.19;;;7.19;33.72
51245;BME280;37840;47.562;18.738;2023-02-10T07:23:10;101855.00;;;7.72;33.12
51245;BME280;37840;47.562;18.738;2023-02-10T07:25:36;101866.00;;;7.91;32.68
51245;BME280;37840;47.562;18.738;2023-02-10T07:28:02;101879.62;;;8.45;32.05
51245;BME280;37840;47.562;18.738;2023-02-10T07:30:28;101877.31;;;7.98;32.97
51245;BME280;37840;47.562;18.738;2023-02-10T07:32:54;101876.31;;;6.91;34.67
51245;BME280;37840;47.562;18.738;2023-02-10T07:35:20;101877.09;;;6.55;35.46
51245;BME280;37840;47.562;18.738;2023-02-10T07:37:46;101873.31;;;6.66;36.04
51245;BME280;37840;47.562;18.738;2023-02-10T07:40:12;101877.03;;;7.00;35.84
51245;BME280;37840;47.562;18.738;2023-02-10T07:42:38;101880.59;;;8.08;33.77
51245;BME280;37840;47.562;18.738;2023-02-10T07:45:04;101878.47;;;8.85;33.58
51245;BME280;37840;47.562;18.738;2023-02-10T07:47:30;101874.37;;;9.86;31.84
51245;BME280;37840;47.562;18.738;2023-02-10T07:49:56;101880.97;;;10.51;30.60
51245;BME280;37840;47.562;18.738;2023-02-10T07:52:23;101876.03;;;10.89;29.32
51245;BME280;37840;47.562;18.738;2023-02-10T07:54:49;101886.75;;;11.09;29.16
51245;BME280;37840;47.562;18.738;2023-02-10T07:57:16;101899.06;;;11.35;29.04
51245;BME280;37840;47.562;18.738;2023-02-10T07:59:42;101889.50;;;11.74;29.08
51245;BME280;37840;47.562;18.738;2023-02-10T08:02:12;101894.91;;;12.35;28.26
51245;BME280;37840;47.562;18.738;2023-02-10T08:04:38;101890.66;;;12.31;28.33
51245;BME280;37840;47.562;18.738;2023-02-10T08:07:04;101894.06;;;12.35;28.05
51245;BME280;37840;47.562;18.738;2023-02-10T08:09:30;101895.03;;;11.69;28.45
51245;BME280;37840;47.562;18.738;2023-02-10T08:11:56;101898.88;;;11.18;29.06
51245;BME280;37840;47.562;18.738;2023-02-10T08:14:22;101893.75;;;10.65;30.53
51245;BME280;37840;47.562;18.738;2023-02-10T08:16:48;101908.50;;;8.54;32.82
51245;BME280;37840;47.562;18.738;2023-02-10T08:19:14;101910.38;;;7.07;36.39
51245;BME280;37840;47.562;18.738;2023-02-10T08:21:40;101907.63;;;6.69;37.87
51245;BME280;37840;47.562;18.738;2023-02-10T08:24:07;101899.97;;;6.07;38.48
51245;BME280;37840;47.562;18.738;2023-02-10T08:26:33;101913.03;;;5.61;41.02
51245;BME280;37840;47.562;18.738;2023-02-10T08:29:00;101919.81;;;5.20;41.64
51245;BME280;37840;47.562;18.738;2023-02-10T08:31:27;101922.28;;;4.64;42.09
51245;BME280;37840;47.562;18.738;2023-02-10T08:33:53;101918.13;;;4.41;42.93
51245;BME280;37840;47.562;18.738;2023-02-10T08:36:20;101914.84;;;4.19;43.15
51245;BME280;37840;47.562;18.738;2023-02-10T08:38:47;101906.59;;;3.63;45.42
51245;BME280;37840;47.562;18.738;2023-02-10T08:41:14;101902.34;;;3.42;46.33
51245;BME280;37840;47.562;18.738;2023-02-10T08:43:41;101906.91;;;3.10;48.45
51245;BME280;37840;47.562;18.738;2023-02-10T08:46:07;101903.47;;;3.00;47.85
51245;BME280;37840;47.562;18.738;2023-02-10T08:48:33;101909.66;;;2.82;48.67
51245;BME280;37840;47.562;18.738;2023-02-10T08:50:59;101906.19;;;2.75;49.86
51245;BME280;37840;47.562;18.738;2023-02-10T08:53:26;101901.88;;;2.53;49.96
51245;BME280;37840;47.562;18.738;2023-02-10T08:56:24;101897.63;;;2.09;52.51
51245;BME280;37840;47.562;18.738;2023-02-10T08:58:49;101899.41;;;1.79;55.19
51245;BME280;37840;47.562;18.738;2023-02-10T09:01:25;101909.03;;;1.49;55.64
51245;BME280;37840;47.562;18.738;2023-02-10T09:03:52;101911.66;;;1.81;55.10
51245;BME280;37840;47.562;18.738;2023-02-10T09:06:26;101912.50;;;2.08;54.53
51245;BME280;37840;47.562;18.738;2023-02-10T09:08:53;101913.41;;;1.86;55.72
51245;BME280;37840;47.562;18.738;2023-02-10T09:11:21;101913.41;;;1.98;55.66
51245;BME280;37840;47.562;18.738;2023-02-10T09:13:50;101908.16;;;1.90;55.15
51245;BME280;37840;47.562;18.738;2023-02-10T09:16:16;101902.00;;;1.93;56.49
51245;BME280;37840;47.562;18.738;2023-02-10T09:18:42;101897.66;;;1.73;57.31
51245;BME280;37840;47.562;18.738;2023-02-10T09:21:09;101912.50;;;1.70;58.68
51245;BME280;37840;47.562;18.738;2023-02-10T09:30:21;101913.31;;;2.33;56.54
51245;BME280;37840;47.562;18.738;2023-02-10T09:36:16;101908.00;;;2.64;54.85
51245;BME280;37840;47.562;18.738;2023-02-10T12:32:42;101723.81;;;4.60;46.08
51245;BME280;37840;47.562;18.738;2023-02-10T12:43:44;101720.78;;;4.86;45.36
51245;BME280;37840;47.562;18.738;2023-02-10T12:46:36;101732.16;;;4.90;45.54
51245;BME280;37840;47.562;18.738;2023-02-10T12:49:22;101728.66;;;4.89;44.66
51245;BME280;37840;47.562;18.738;2023-02-10T12:57:44;101726.91;;;4.88;44.83
51245;BME280;37840;47.562;18.738;2023-02-10T13:00:21;101736.56;;;4.88;44.55
51245;BME280;37840;47.562;18.738;2023-02-10T13:02:56;101733.00;;;4.92;45.33
51245;BME280;37840;47.562;18.738;2023-02-10T13:05:31;101733.84;;;4.94;44.71
51245;BME280;37840;47.562;18.738;2023-02-10T13:08:00;101727.63;;;5.00;46.24
51245;BME280;37840;47.562;18.738;2023-02-10T13:10:35;101733.84;;;4.96;46.59
51245;BME280;37840;47.562;18.738;2023-02-10T13:13:10;101735.66;;;4.90;45.38
51245;BME280;37840;47.562;18.738;2023-02-10T13:15:41;101731.78;;;4.57;44.53
51245;BME280;37840;47.562;18.738;2023-02-10T13:18:19;101725.44;;;4.69;44.95
51245;BME280;37840;47.562;18.738;2023-02-10T13:21:00;101713.03;;;4.76;45.22
51245;BME280;37840;47.562;18.738;2023-02-10T13:23:48;101709.56;;;4.74;45.24
51245;BME280;37840;47.562;18.738;2023-02-10T13:32:04;101715.31;;;4.99;44.58
51245;BME280;37840;47.562;18.738;2023-02-10T13:34:41;101714.28;;;5.07;44.78
51245;BME280;37840;47.562;18.738;2023-02-10T13:37:16;101713.31;;;5.13;43.76
51245;BME280;37840;47.562;18.738;2023-02-10T13:39:54;101714.25;;;5.10;44.19
51245;BME280;37840;47.562;18.738;2023-02-10T13:42:46;101719.66;;;5.03;43.73
51245;BME280;37840;47.562;18.738;2023-02-10T13:47:48;101724.84;;;5.07;43.99
51245;BME280;37840;47.562;18.738;2023-02-10T13:53:01;101708.13;;;5.08;42.34
51245;BME280;37840;47.562;18.738;2023-02-10T13:55:41;101713.25;;;5.16;42.52
51245;BME280;37840;47.562;18.738;2023-02-10T14:05:50;101706.84;;;5.31;42.81
51245;BME280;37840;47.562;18.738;2023-02-10T14:15:28;101719.19;;;5.30;42.79
51245;BME280;37840;47.562;18.738;2023-02-10T14:21:17;101720.03;;;5.31;43.16
51245;BME280;37840;47.562;18.738;2023-02-10T14:27:11;101728.97;;;5.22;43.64
51245;BME280;37840;47.562;18.738;2023-02-10T14:29:44;101726.41;;;5.21;43.57
51245;BME280;37840;47.562;18.738;2023-02-10T14:43:34;101714.38;;;5.03;44.00
51245;BME280;37840;47.562;18.738;2023-02-10T14:46:01;101717.00;;;5.04;44.11
51245;BME280;37840;47.562;18.738;2023-02-10T14:48:29;101723.16;;;5.03;44.27
51245;BME280;37840;47.562;18.738;2023-02-10T14:51:07;101713.50;;;5.04;44.20
51245;BME280;37840;47.562;18.738;2023-02-10T14:53:46;101713.53;;;4.99;44.37
51245;BME280;37840;47.562;18.738;2023-02-10T15:02:58;101720.00;;;4.81;44.77
51245;BME280;37840;47.562;18.738;2023-02-10T15:05:37;101726.16;;;4.80;44.73
51245;BME280;37840;47.562;18.738;2023-02-10T15:08:06;101738.50;;;4.78;45.03
51245;BME280;37840;47.562;18.738;2023-02-10T15:10:41;101725.34;;;4.75;45.18
51245;BME280;37840;47.562;18.738;2023-02-10T15:13:09;101728.03;;;4.72;45.31
51245;BME280;37840;47.562;18.738;2023-02-10T15:15:45;101727.19;;;4.70;45.39
51245;BME280;37840;47.562;18.738;2023-02-10T15:18:27;101735.13;;;4.67;45.59
51245;BME280;37840;47.562;18.738;2023-02-10T15:20:58;101734.34;;;4.62;45.70
51245;BME280;37840;47.562;18.738;2023-02-10T15:23:24;101731.72;;;4.60;45.67
51245;BME280;37840;47.562;18.738;2023-02-10T15:26:15;101729.16;;;4.56;45.84
51245;BME280;37840;47.562;18.738;2023-02-10T15:28:42;101720.50;;;4.47;45.85
51245;BME280;37840;47.562;18.738;2023-02-10T15:31:25;101734.56;;;4.46;45.96
51245;BME280;37840;47.562;18.738;2023-02-10T15:34:00;101738.16;;;4.39;46.15
51245;BME280;37840;47.562;18.738;2023-02-10T15:36:44;101742.69;;;4.29;46.21
51245;BME280;37840;47.562;18.738;2023-02-10T15:39:25;101737.47;;;4.25;46.57
51245;BME280;37840;47.562;18.738;2023-02-10T15:45:15;101746.41;;;4.12;47.35
51245;BME280;37840;47.562;18.738;2023-02-10T15:47:45;101745.75;;;3.96;47.92
51245;BME280;37840;47.562;18.738;2023-02-10T15:50:12;101754.56;;;3.92;48.31
51245;BME280;37840;47.562;18.738;2023-02-10T15:52:41;101747.59;;;3.84;48.73
51245;BME280;37840;47.562;18.738;2023-02-10T15:55:24;101749.38;;;3.82;48.93
51245;BME280;37840;47.562;18.738;2023-02-10T15:57:52;101745.94;;;3.76;49.20
51245;BME280;37840;47.562;18.738;2023-02-10T16:00:21;101752.19;;;3.67;49.55
51245;BME280;37840;47.562;18.738;2023-02-10T16:02:47;101761.88;;;3.63;49.81
51245;BME280;37840;47.562;18.738;2023-02-10T16:05:13;101760.19;;;3.55;50.21
51245;BME280;37840;47.562;18.738;2023-02-10T16:07:40;101764.69;;;3.46;50.64
51245;BME280;37840;47.562;18.738;2023-02-10T16:10:18;101757.69;;;3.42;50.75
51245;BME280;37840;47.562;18.738;2023-02-10T16:12:45;101767.38;;;3.37;50.93
51245;BME280;37840;47.562;18.738;2023-02-10T16:15:16;101761.28;;;3.31;50.95
51245;BME280;37840;47.562;18.738;2023-02-10T16:17:44;101766.63;;;3.21;51.37
51245;BME280;37840;47.562;18.738;2023-02-10T16:20:23;101773.66;;;3.16;51.58
51245;BME280;37840;47.562;18.738;2023-02-10T16:22:49;101769.34;;;3.08;51.89
51245;BME280;37840;47.562;18.738;2023-02-10T16:25:17;101772.06;;;2.98;52.14
51245;BME280;37840;47.562;18.738;2023-02-10T16:27:44;101772.97;;;2.93;52.32
51245;BME280;37840;47.562;18.738;2023-02-10T16:30:28;101764.22;;;2.91;52.29
51245;BME280;37840;47.562;18.738;2023-02-10T16:32:55;101766.94;;;2.80;52.61
51245;BME280;37840;47.562;18.738;2023-02-10T16:35:22;101766.97;;;2.75;52.79
51245;BME280;37840;47.562;18.738;2023-02-10T16:37:49;101781.00;;;2.73;52.88
51245;BME280;37840;47.562;18.738;2023-02-10T16:40:20;101774.00;;;2.67;53.19
51245;BME280;37840;47.562;18.738;2023-02-10T16:42:48;101782.81;;;2.57;53.53
51245;BME280;37840;47.562;18.738;2023-02-10T16:45:14;101786.37;;;2.43;53.94
51245;BME280;37840;47.562;18.738;2023-02-10T16:47:40;101784.62;;;2.45;54.13
51245;BME280;37840;47.562;18.738;2023-02-10T16:50:28;101775.91;;;2.37;54.61
51245;BME280;37840;47.562;18.738;2023-02-10T16:52:54;101782.09;;;2.29;54.72
51245;BME280;37840;47.562;18.738;2023-02-10T16:55:20;101776.88;;;2.26;54.89
51245;BME280;37840;47.562;18.738;2023-02-10T16:57:47;101780.38;;;2.20;55.72
51245;BME280;37840;47.562;18.738;2023-02-10T17:00:14;101776.91;;;2.09;56.18
51245;BME280;37840;47.562;18.738;2023-02-10T17:02:41;101776.06;;;1.99;56.36
51245;BME280;37840;47.562;18.738;2023-02-10T17:05:09;101779.56;;;1.95;56.44
51245;BME280;37840;47.562;18.738;2023-02-10T17:07:36;101776.94;;;1.93;56.21
51245;BME280;37840;47.562;18.738;2023-02-10T17:10:11;101772.63;;;1.89;56.54
51245;BME280;37840;47.562;18.738;2023-02-10T17:12:37;101774.34;;;1.92;56.42
51245;BME280;37840;47.562;18.738;2023-02-10T17:15:03;101774.38;;;1.86;56.43
51245;BME280;37840;47.562;18.738;2023-02-10T17:17:29;101779.59;;;1.86;56.64
51245;BME280;37840;47.562;18.738;2023-02-10T17:19:55;101781.38;;;1.73;57.07
51245;BME280;37840;47.562;18.738;2023-02-10T17:22:23;101776.16;;;1.60;57.88
51245;BME280;37840;47.562;18.738;2023-02-10T17:24:49;101784.91;;;1.50;58.23
51245;BME280;37840;47.562;18.738;2023-02-10T17:27:15;101787.53;;;1.42;58.61